createdAt,value
2023-09-02T00:01:15.092Z,27.48
2023-09-02T00:06:16.806Z,25.75
2023-09-02T00:11:18.408Z,26.33
2023-09-02T00:16:20.357Z,27.15
2023-09-02T00:21:22.087Z,28.88
2023-09-02T00:26:23.697Z,26.92
2023-09-02T00:31:25.595Z,28.00
2023-09-02T00:36:29.093Z,26.95
2023-09-02T00:41:35.584Z,26.75
2023-09-02T00:46:37.328Z,24.15
2023-09-02T00:51:39.530Z,22.85
2023-09-02T00:56:41.774Z,19.85
2023-09-02T01:01:46.549Z,26.17
2023-09-02T01:06:48.302Z,27.85
2023-09-02T01:11:50.224Z,29.38
2023-09-02T01:16:51.948Z,29.10
2023-09-02T01:22:20.281Z,34.67
2023-09-02T01:28:05.299Z,29.90
2023-09-02T01:33:10.206Z,28.10
2023-09-02T01:38:13.136Z,29.55
2023-09-02T01:43:22.234Z,29.35
2023-09-02T01:48:27.341Z,28.38
2023-09-02T01:53:30.377Z,29.35
2023-09-02T01:58:32.112Z,26.20
2023-09-02T02:03:52.591Z,27.80
2023-09-02T02:09:04.245Z,27.13
2023-09-02T02:14:07.332Z,25.45
2023-09-02T02:19:09.387Z,24.55
2023-09-02T02:24:11.049Z,20.92
2023-09-02T02:29:12.674Z,18.70
2023-09-02T02:34:15.677Z,21.73
2023-09-02T02:39:17.987Z,20.08
2023-09-02T02:44:19.835Z,21.98
2023-09-02T02:49:21.498Z,21.55
2023-09-02T02:54:23.477Z,20.90
2023-09-02T02:59:25.544Z,20.70
2023-09-02T03:04:27.885Z,20.40
2023-09-02T03:09:29.605Z,21.35
2023-09-02T03:14:31.384Z,20.35
2023-09-02T03:19:33.154Z,21.50
2023-09-02T03:24:34.848Z,22.15
2023-09-02T03:29:36.621Z,20.50
2023-09-02T03:34:38.889Z,20.00
2023-09-02T03:39:40.771Z,22.13
2023-09-02T03:44:42.551Z,21.63
2023-09-02T03:49:44.216Z,21.30
2023-09-02T03:54:46.650Z,23.35
2023-09-02T03:59:49.855Z,23.05
2023-09-02T04:04:52.435Z,22.52
2023-09-02T04:09:56.145Z,22.45
2023-09-02T04:14:57.912Z,22.75
2023-09-02T04:20:01.617Z,22.13
2023-09-02T04:25:06.182Z,24.60
2023-09-02T04:30:10.153Z,23.60
2023-09-02T04:35:11.908Z,20.00
2023-09-02T04:40:15.360Z,18.85
2023-09-02T04:45:18.211Z,19.13
2023-09-02T04:50:21.678Z,18.73
2023-09-02T04:55:25.971Z,18.85
2023-09-02T05:00:28.197Z,19.70
2023-09-02T05:05:31.083Z,21.58
2023-09-02T05:10:32.886Z,22.42
2023-09-02T05:15:34.645Z,22.88
2023-09-02T05:20:36.457Z,25.35
2023-09-02T05:25:38.157Z,24.27
2023-09-02T05:30:39.986Z,24.75
2023-09-02T05:35:41.640Z,24.77
2023-09-02T05:40:44.002Z,25.60
2023-09-02T05:45:45.802Z,27.23
2023-09-02T05:50:47.465Z,28.23
2023-09-02T05:55:56.126Z,27.60
2023-09-02T06:01:04.702Z,27.70
2023-09-02T06:06:13.264Z,26.20
2023-09-02T06:11:16.295Z,26.02
2023-09-02T06:16:18.021Z,23.92
2023-09-02T06:21:19.660Z,25.02
2023-09-02T06:26:21.303Z,25.85
2023-09-02T06:31:23.417Z,23.23
2023-09-02T06:36:25.298Z,24.15
2023-09-02T06:41:26.929Z,25.33
2023-09-02T06:46:29.222Z,24.67
2023-09-02T06:51:31.196Z,24.92
2023-09-02T06:56:34.417Z,22.65
2023-09-02T07:01:36.036Z,22.95
2023-09-02T07:06:37.728Z,23.23
2023-09-02T07:11:39.305Z,20.85
2023-09-02T07:16:42.149Z,21.65
2023-09-02T07:21:44.355Z,20.10
2023-09-02T07:26:48.469Z,21.27
2023-09-02T07:31:50.110Z,21.17
2023-09-02T07:36:51.872Z,20.95
2023-09-02T07:41:53.611Z,20.33
2023-09-02T07:46:55.324Z,21.67
2023-09-02T07:51:57.406Z,19.58
2023-09-02T07:56:59.217Z,19.80
2023-09-02T08:02:00.869Z,18.85
2023-09-02T08:07:02.494Z,19.17
2023-09-02T08:12:04.624Z,18.63
2023-09-02T08:17:06.744Z,18.13
2023-09-02T08:22:08.426Z,18.90
2023-09-02T08:27:10.219Z,17.23
2023-09-02T08:32:11.848Z,17.83
2023-09-02T08:37:13.938Z,18.50
2023-09-02T08:42:21.097Z,16.63
2023-09-02T08:47:28.679Z,17.33
2023-09-02T08:52:30.533Z,18.35
2023-09-02T08:57:33.830Z,17.30
2023-09-02T09:02:39.274Z,18.15
2023-09-02T09:07:41.992Z,16.42
2023-09-02T09:12:45.988Z,18.73
2023-09-02T09:17:48.715Z,18.42
2023-09-02T09:22:52.167Z,19.85
2023-09-02T09:27:53.962Z,20.00
2023-09-02T09:33:02.654Z,20.65
2023-09-02T09:38:06.064Z,19.57
2023-09-02T09:43:19.291Z,21.45
2023-09-02T09:48:21.423Z,21.55
2023-09-02T09:53:24.799Z,20.58
2023-09-02T09:58:26.453Z,19.05
2023-09-02T10:03:34.472Z,20.40
2023-09-02T10:08:55.623Z,19.02
2023-09-02T10:13:58.606Z,18.08
2023-09-02T10:19:00.986Z,14.30
2023-09-02T10:24:08.379Z,15.88
2023-09-02T10:29:13.898Z,16.17
2023-09-02T10:34:27.215Z,14.57
2023-09-02T10:40:05.775Z,14.43
2023-09-02T10:45:08.049Z,14.63
2023-09-02T10:50:11.029Z,14.95
2023-09-02T10:55:13.110Z,17.17
2023-09-02T11:00:18.299Z,11.55
2023-09-02T11:05:21.245Z,11.52
2023-09-02T11:10:43.406Z,10.80
2023-09-02T11:16:12.069Z,10.38
2023-09-02T11:21:47.771Z,12.57
2023-09-02T11:26:59.281Z,11.25
2023-09-02T11:32:03.281Z,9.57
2023-09-02T11:37:06.198Z,10.40
2023-09-02T11:42:08.682Z,10.23
2023-09-02T11:47:15.357Z,9.45
2023-09-02T11:52:22.168Z,9.50
2023-09-02T11:57:23.762Z,7.18
2023-09-02T12:02:26.566Z,9.63
2023-09-02T12:07:34.653Z,7.60
2023-09-02T12:12:43.975Z,7.70
2023-09-02T12:17:48.490Z,5.35
2023-09-02T12:22:50.763Z,5.55
2023-09-02T12:27:53.345Z,8.57
2023-09-02T12:32:58.506Z,7.50
2023-09-02T12:38:10.148Z,8.77
2023-09-02T12:43:23.233Z,8.88
2023-09-02T12:48:25.779Z,8.65
2023-09-02T12:53:28.145Z,6.22
2023-09-02T12:58:29.784Z,8.35
2023-09-02T13:03:31.510Z,10.10
2023-09-02T13:08:33.571Z,8.57
2023-09-02T13:13:35.680Z,9.10
2023-09-02T13:18:37.583Z,8.57
2023-09-02T13:23:39.659Z,10.23
2023-09-02T13:28:41.490Z,9.65
2023-09-02T13:33:43.790Z,9.15
2023-09-02T13:38:45.624Z,8.60
2023-09-02T13:43:47.393Z,6.53
2023-09-02T13:48:49.144Z,8.50
2023-09-02T13:53:50.864Z,8.60
2023-09-02T13:58:52.646Z,10.50
2023-09-02T14:03:54.488Z,8.45
2023-09-02T14:09:00.396Z,8.68
2023-09-02T14:14:02.131Z,5.45
2023-09-02T14:19:03.788Z,9.70
2023-09-02T14:24:05.915Z,9.32
2023-09-02T14:29:07.542Z,9.02
2023-09-02T14:34:12.407Z,8.45
2023-09-02T14:39:15.543Z,9.73
2023-09-02T14:44:20.594Z,9.93
2023-09-02T14:49:22.338Z,7.22
2023-09-02T14:54:24.074Z,8.68
2023-09-02T14:59:28.788Z,8.55
2023-09-02T15:04:31.248Z,8.55
2023-09-02T15:09:33.058Z,10.18
2023-09-02T15:14:35.669Z,11.43
2023-09-02T15:19:39.270Z,11.05
2023-09-02T15:24:40.962Z,10.48
2023-09-02T15:29:53.004Z,10.45
2023-09-02T15:34:56.881Z,10.48
2023-09-02T15:40:04.104Z,8.32
2023-09-02T15:45:06.475Z,6.72
2023-09-02T15:50:08.520Z,7.72
2023-09-02T15:55:10.221Z,10.55
2023-09-02T16:00:12.162Z,10.70
2023-09-02T16:05:16.563Z,8.52
2023-09-02T16:10:18.478Z,8.20
2023-09-02T16:15:22.593Z,11.70
2023-09-02T16:20:24.361Z,12.75
2023-09-02T16:25:26.113Z,9.02
2023-09-02T16:30:27.825Z,8.80
2023-09-02T16:35:29.527Z,11.13
2023-09-02T16:40:31.176Z,8.90
2023-09-02T16:45:32.839Z,9.15
2023-09-02T16:50:34.599Z,7.60
2023-09-02T16:55:36.295Z,11.73
2023-09-02T17:00:38.093Z,8.02
2023-09-02T17:05:45.051Z,8.75
2023-09-02T17:10:46.732Z,8.00
2023-09-02T17:15:48.894Z,6.57
2023-09-02T17:20:50.860Z,7.45
2023-09-02T17:25:52.599Z,5.38
2023-09-02T17:31:04.067Z,5.93
2023-09-02T17:36:06.458Z,6.32
2023-09-02T17:41:08.814Z,6.13
2023-09-02T17:46:10.536Z,5.38
2023-09-02T17:51:12.233Z,12.73
2023-09-02T17:56:13.968Z,4.47
2023-09-02T18:01:15.693Z,5.28
2023-09-02T18:06:17.439Z,5.47
2023-09-02T18:11:19.033Z,7.80
2023-09-02T18:16:20.679Z,4.72
2023-09-02T18:21:22.452Z,6.82
2023-09-02T18:26:24.254Z,6.85
2023-09-02T18:31:26.961Z,4.22
2023-09-02T18:36:28.657Z,4.75
2023-09-02T18:41:30.298Z,4.00
2023-09-02T18:46:32.237Z,5.10
2023-09-02T18:51:33.995Z,4.00
2023-09-02T18:56:37.676Z,6.55
2023-09-02T19:01:39.489Z,5.80
2023-09-02T19:06:43.378Z,5.65
2023-09-02T19:11:46.149Z,5.70
2023-09-02T19:16:47.838Z,6.10
2023-09-02T19:21:49.684Z,8.80
2023-09-02T19:26:51.532Z,7.07
2023-09-02T19:31:53.193Z,6.32
2023-09-02T19:36:54.841Z,6.10
2023-09-02T19:41:59.230Z,5.20
2023-09-02T19:47:01.013Z,5.93
2023-09-02T19:52:02.661Z,9.73
2023-09-02T19:57:04.504Z,7.03
2023-09-02T20:02:06.819Z,12.07
2023-09-02T20:07:08.580Z,6.60
2023-09-02T20:12:10.248Z,7.22
2023-09-02T20:17:12.121Z,5.93
2023-09-02T20:22:17.442Z,8.02
2023-09-02T20:27:19.836Z,7.25
2023-09-02T20:32:21.617Z,6.32
2023-09-02T20:37:23.486Z,8.25
2023-09-02T20:42:25.197Z,5.03
2023-09-02T20:47:26.881Z,6.90
2023-09-02T20:52:28.860Z,6.35
2023-09-02T20:57:30.615Z,6.65
2023-09-02T21:02:32.375Z,7.60
2023-09-02T21:07:34.229Z,6.28
2023-09-02T21:12:35.875Z,5.90
2023-09-02T21:17:37.608Z,7.53
2023-09-02T21:22:39.303Z,6.63
2023-09-02T21:27:40.917Z,6.40
2023-09-02T21:32:43.358Z,7.18
2023-09-02T21:37:46.528Z,7.30
2023-09-02T21:42:48.150Z,10.38
2023-09-02T21:47:49.796Z,7.15
2023-09-02T21:52:51.543Z,7.22
2023-09-02T21:57:53.222Z,7.72
2023-09-02T22:02:55.116Z,8.13
2023-09-02T22:07:56.861Z,8.52
2023-09-02T22:12:58.614Z,10.27
2023-09-02T22:18:00.354Z,13.77
2023-09-02T22:23:02.094Z,10.57
2023-09-02T22:28:03.884Z,8.05
2023-09-02T22:33:05.941Z,8.70
2023-09-02T22:38:10.316Z,10.23
2023-09-02T22:43:12.439Z,8.98
2023-09-02T22:48:17.099Z,9.18
2023-09-02T22:53:20.170Z,8.60
2023-09-02T22:58:22.283Z,8.82
2023-09-02T23:03:23.987Z,8.90
2023-09-02T23:08:25.633Z,9.05
2023-09-02T23:13:28.079Z,9.43
2023-09-02T23:18:29.823Z,9.93
2023-09-02T23:23:31.493Z,8.57
2023-09-02T23:28:33.121Z,10.23
2023-09-02T23:33:34.874Z,11.05
2023-09-02T23:38:36.633Z,10.70
2023-09-02T23:43:38.389Z,10.23
2023-09-02T23:48:42.289Z,10.10
2023-09-02T23:53:45.262Z,10.40
2023-09-02T23:58:46.883Z,10.88
